createdAt,value
2022-10-24T00:01:19.079Z,11.03
2022-10-24T00:03:45.729Z,11.06
2022-10-24T00:06:12.998Z,11.02
2022-10-24T00:08:41.463Z,11.02
2022-10-24T00:11:10.161Z,11.06
2022-10-24T00:13:37.049Z,11.07
2022-10-24T00:16:04.044Z,11.03
2022-10-24T00:18:30.991Z,10.98
2022-10-24T00:20:57.840Z,10.99
2022-10-24T00:23:24.291Z,11.04
2022-10-24T00:25:50.766Z,11.04
2022-10-24T00:28:17.274Z,11.07
2022-10-24T00:30:43.782Z,11.08
2022-10-24T00:33:10.267Z,11.04
2022-10-24T00:35:36.866Z,11.05
2022-10-24T00:38:03.396Z,11.03
2022-10-24T00:40:29.954Z,11.03
2022-10-24T00:42:56.432Z,11.07
2022-10-24T00:45:46.958Z,11.07
2022-10-24T00:48:51.065Z,11.08
2022-10-24T00:51:28.146Z,11.11
2022-10-24T00:54:00.892Z,11.17
2022-10-24T00:56:32.407Z,11.14
2022-10-24T00:59:02.033Z,11.11
2022-10-24T01:01:29.595Z,11.12
2022-10-24T01:03:56.174Z,11.17
2022-10-24T01:06:37.875Z,11.15
2022-10-24T01:09:19.032Z,11.38
2022-10-24T01:11:51.409Z,11.30
2022-10-24T01:14:26.175Z,11.20
2022-10-24T01:17:17.961Z,11.26
2022-10-24T01:19:50.219Z,11.15
2022-10-24T01:22:25.874Z,11.17
2022-10-24T01:25:15.673Z,11.16
2022-10-24T01:27:42.248Z,11.20
2022-10-24T01:30:11.441Z,11.18
2022-10-24T01:32:46.982Z,11.18
2022-10-24T01:35:23.371Z,11.19
2022-10-24T01:37:56.066Z,11.34
2022-10-24T01:40:34.970Z,11.26
2022-10-24T01:43:09.524Z,11.22
2022-10-24T01:45:40.324Z,11.24
2022-10-24T01:48:12.049Z,11.22
2022-10-24T01:50:40.141Z,11.36
2022-10-24T01:53:08.981Z,11.30
2022-10-24T01:55:37.902Z,11.38
2022-10-24T01:58:05.994Z,11.32
2022-10-24T02:00:32.585Z,11.25
2022-10-24T02:03:04.922Z,11.24
2022-10-24T02:05:39.540Z,11.30
2022-10-24T02:08:10.640Z,11.36
2022-10-24T02:10:55.426Z,11.34
2022-10-24T02:13:49.349Z,11.35
2022-10-24T02:16:19.478Z,11.32
2022-10-24T02:18:52.696Z,11.32
2022-10-24T02:21:35.459Z,11.35
2022-10-24T02:24:17.315Z,11.36
2022-10-24T02:26:54.001Z,11.35
2022-10-24T02:29:32.271Z,11.37
2022-10-24T02:31:59.684Z,11.38
2022-10-24T02:34:31.950Z,11.38
2022-10-24T02:36:59.306Z,11.35
2022-10-24T02:39:26.721Z,11.33
2022-10-24T02:41:55.735Z,11.32
2022-10-24T02:44:24.666Z,11.30
2022-10-24T02:46:54.542Z,11.26
2022-10-24T02:49:21.093Z,11.20
2022-10-24T02:51:49.218Z,11.17
2022-10-24T02:54:15.753Z,11.14
2022-10-24T02:56:50.199Z,11.36
2022-10-24T02:59:16.760Z,11.25
2022-10-24T03:01:43.279Z,11.22
2022-10-24T03:04:09.965Z,11.23
2022-10-24T03:06:37.565Z,11.21
2022-10-24T03:09:04.115Z,11.17
2022-10-24T03:11:30.743Z,11.16
2022-10-24T03:13:57.289Z,11.12
2022-10-24T03:16:25.378Z,11.17
2022-10-24T03:18:51.936Z,11.05
2022-10-24T03:21:18.441Z,11.13
2022-10-24T03:23:44.983Z,11.17
2022-10-24T03:26:11.546Z,11.18
2022-10-24T03:28:39.093Z,11.15
2022-10-24T03:31:05.778Z,11.17
2022-10-24T03:33:32.411Z,11.19
2022-10-24T03:35:59.301Z,11.21
2022-10-24T03:38:26.251Z,11.21
2022-10-24T03:40:52.776Z,11.25
2022-10-24T03:43:19.799Z,11.26
2022-10-24T03:45:46.305Z,11.58
2022-10-24T03:48:13.317Z,11.39
2022-10-24T03:50:39.935Z,11.32
2022-10-24T03:53:06.463Z,11.33
2022-10-24T03:55:33.156Z,11.36
2022-10-24T03:57:59.701Z,11.30
2022-10-24T04:00:28.751Z,11.28
2022-10-24T04:02:55.727Z,11.30
2022-10-24T04:05:23.952Z,11.33
2022-10-24T04:07:50.427Z,11.38
2022-10-24T04:10:17.168Z,11.43
2022-10-24T04:12:43.639Z,11.48
2022-10-24T04:15:12.130Z,11.46
2022-10-24T04:17:38.719Z,12.15
2022-10-24T04:20:05.773Z,12.32
2022-10-24T04:22:32.300Z,12.31
2022-10-24T04:24:58.824Z,12.30
2022-10-24T04:27:25.424Z,12.14
2022-10-24T04:29:51.921Z,11.95
2022-10-24T04:32:18.405Z,11.99
2022-10-24T04:34:45.075Z,12.60
2022-10-24T04:37:11.544Z,12.77
2022-10-24T04:39:38.049Z,12.86
2022-10-24T04:42:04.550Z,12.84
2022-10-24T04:44:31.158Z,12.72
2022-10-24T04:46:57.591Z,12.68
2022-10-24T04:49:24.081Z,12.72
2022-10-24T04:51:50.526Z,12.73
2022-10-24T04:54:17.079Z,12.80
2022-10-24T04:56:43.611Z,12.78
2022-10-24T04:59:10.136Z,12.81
2022-10-24T05:01:36.717Z,12.70
2022-10-24T05:04:03.377Z,12.62
2022-10-24T05:06:29.841Z,12.61
2022-10-24T05:08:56.356Z,12.88
2022-10-24T05:11:23.895Z,12.83
2022-10-24T05:13:50.405Z,12.74
2022-10-24T05:16:16.919Z,12.68
2022-10-24T05:18:43.434Z,12.55
2022-10-24T05:21:09.948Z,12.62
2022-10-24T05:23:36.431Z,12.68
2022-10-24T05:26:02.970Z,12.65
2022-10-24T05:28:29.545Z,12.68
2022-10-24T05:30:56.044Z,12.64
2022-10-24T05:33:23.550Z,12.58
2022-10-24T05:35:53.733Z,12.55
2022-10-24T05:38:20.272Z,12.56
2022-10-24T05:40:51.442Z,12.59
2022-10-24T05:43:18.581Z,12.60
2022-10-24T05:45:47.777Z,12.58
2022-10-24T05:48:14.345Z,12.52
2022-10-24T05:50:40.844Z,12.55
2022-10-24T05:53:08.724Z,12.57
2022-10-24T05:55:37.165Z,12.87
2022-10-24T05:58:03.798Z,13.21
2022-10-24T06:00:33.811Z,13.04
2022-10-24T06:03:01.078Z,12.68
2022-10-24T06:05:27.952Z,12.55
2022-10-24T06:07:54.514Z,12.48
2022-10-24T06:10:21.314Z,12.44
2022-10-24T06:12:48.039Z,12.40
2022-10-24T06:15:14.835Z,12.38
2022-10-24T06:17:41.327Z,12.37
2022-10-24T06:20:08.621Z,12.37
2022-10-24T06:22:35.089Z,12.40
2022-10-24T06:25:01.773Z,12.40
2022-10-24T06:27:28.622Z,12.37
2022-10-24T06:29:55.326Z,12.40
2022-10-24T06:32:22.017Z,12.39
2022-10-24T06:34:48.519Z,12.36
2022-10-24T06:37:14.982Z,12.36
2022-10-24T06:39:41.618Z,12.35
2022-10-24T06:42:08.140Z,12.32
2022-10-24T06:44:34.869Z,12.35
2022-10-24T06:47:01.344Z,12.35
2022-10-24T06:49:27.890Z,12.35
2022-10-24T06:51:54.417Z,12.38
2022-10-24T06:54:21.761Z,12.40
2022-10-24T06:56:49.739Z,12.43
2022-10-24T06:59:18.282Z,12.48
2022-10-24T07:01:45.352Z,12.52
2022-10-24T07:04:11.932Z,12.53
2022-10-24T07:06:38.481Z,12.54
2022-10-24T07:09:05.996Z,12.58
2022-10-24T07:11:34.003Z,12.67
2022-10-24T07:14:01.879Z,12.74
2022-10-24T07:16:30.253Z,12.76
2022-10-24T07:18:57.089Z,12.79
2022-10-24T07:21:25.750Z,12.89
2022-10-24T07:23:54.699Z,12.91
2022-10-24T07:26:23.133Z,13.01
2022-10-24T07:28:53.435Z,13.04
2022-10-24T07:31:22.297Z,13.07
2022-10-24T07:33:49.254Z,13.11
2022-10-24T07:36:23.732Z,13.16
2022-10-24T07:38:52.139Z,13.18
2022-10-24T07:41:19.011Z,13.21
2022-10-24T07:43:46.292Z,13.26
2022-10-24T07:46:16.018Z,13.30
2022-10-24T07:48:42.559Z,13.26
2022-10-24T07:51:10.983Z,13.26
2022-10-24T07:53:37.600Z,13.27
2022-10-24T07:56:09.446Z,13.30
2022-10-24T07:58:36.797Z,13.34
2022-10-24T08:01:05.547Z,13.40
2022-10-24T08:03:32.077Z,13.46
2022-10-24T08:05:58.860Z,13.60
2022-10-24T08:08:35.870Z,13.69
2022-10-24T08:11:14.803Z,13.75
2022-10-24T08:13:41.432Z,13.73
2022-10-24T08:16:10.327Z,13.74
2022-10-24T08:18:39.491Z,13.76
2022-10-24T08:21:09.374Z,13.89
2022-10-24T08:23:38.107Z,13.97
2022-10-24T08:26:06.334Z,13.98
2022-10-24T08:28:33.002Z,14.04
2022-10-24T08:31:03.573Z,14.12
2022-10-24T08:33:30.749Z,14.45
2022-10-24T08:36:01.391Z,14.46
2022-10-24T08:38:29.129Z,14.76
2022-10-24T08:40:57.214Z,15.02
2022-10-24T08:43:24.913Z,15.08
2022-10-24T08:45:54.749Z,15.42
2022-10-24T08:48:27.561Z,15.46
2022-10-24T08:51:02.674Z,15.26
2022-10-24T08:53:31.777Z,15.00
2022-10-24T08:56:01.427Z,14.92
2022-10-24T08:58:42.787Z,14.95
2022-10-24T09:01:17.159Z,14.91
2022-10-24T09:03:56.111Z,14.72
2022-10-24T09:06:26.473Z,14.67
2022-10-24T09:08:54.439Z,14.69
2022-10-24T09:11:31.208Z,14.74
2022-10-24T09:14:00.685Z,14.67
2022-10-24T09:16:27.734Z,14.62
2022-10-24T09:18:56.894Z,14.58
2022-10-24T09:21:24.204Z,14.61
2022-10-24T09:23:51.077Z,14.67
2022-10-24T09:26:30.829Z,14.70
2022-10-24T09:28:57.858Z,14.71
2022-10-24T09:31:27.520Z,14.64
2022-10-24T09:33:54.539Z,14.72
2022-10-24T09:36:24.918Z,14.87
2022-10-24T09:38:51.830Z,15.04
2022-10-24T09:41:27.987Z,15.10
2022-10-24T09:43:58.228Z,15.06
2022-10-24T09:46:35.091Z,15.20
2022-10-24T09:49:08.752Z,15.33
2022-10-24T09:51:37.164Z,15.24
2022-10-24T09:54:06.640Z,15.27
2022-10-24T09:56:40.277Z,15.24
2022-10-24T09:59:32.641Z,15.37
2022-10-24T10:02:08.355Z,15.44
2022-10-24T10:04:34.932Z,15.55
2022-10-24T10:07:14.064Z,15.83
2022-10-24T10:09:52.742Z,15.77
2022-10-24T10:12:34.765Z,15.75
2022-10-24T10:15:16.482Z,15.58
2022-10-24T10:17:51.853Z,15.28
2022-10-24T10:20:30.810Z,15.27
2022-10-24T10:23:36.290Z,15.21
2022-10-24T10:26:05.368Z,15.21
2022-10-24T10:48:42.863Z,15.15
2022-10-24T10:55:35.203Z,15.05
2022-10-24T10:58:23.984Z,15.18
2022-10-24T11:04:44.106Z,15.31
2022-10-24T11:07:22.620Z,15.31
2022-10-24T11:14:22.883Z,15.23
2022-10-24T11:16:52.149Z,15.16
2022-10-24T11:34:37.701Z,15.18
2022-10-24T11:41:28.883Z,15.15
2022-10-24T11:43:59.003Z,15.16
2022-10-24T11:47:12.011Z,15.17
2022-10-24T11:49:43.713Z,15.20
2022-10-24T11:56:35.910Z,15.34
2022-10-24T12:03:42.876Z,15.17
2022-10-24T12:06:21.295Z,15.13
2022-10-24T12:09:18.369Z,15.08
2022-10-24T12:12:11.224Z,15.02
2022-10-24T12:14:44.901Z,14.92
2022-10-24T12:17:32.525Z,14.86
2022-10-24T12:20:01.512Z,14.81
2022-10-24T12:22:36.318Z,14.77
2022-10-24T12:25:07.114Z,14.70
2022-10-24T12:27:38.978Z,14.69
2022-10-24T12:30:21.610Z,14.68
2022-10-24T12:32:55.602Z,14.67
2022-10-24T12:35:31.781Z,14.61
2022-10-24T12:37:59.100Z,14.60
2022-10-24T12:40:55.580Z,14.61
2022-10-24T12:43:49.112Z,14.60
2022-10-24T12:46:21.794Z,14.79
2022-10-24T12:48:59.060Z,14.79
2022-10-24T12:51:28.851Z,14.79
2022-10-24T12:54:11.800Z,14.91
2022-10-24T12:56:50.152Z,14.79
2022-10-24T12:59:24.587Z,14.78
2022-10-24T13:02:28.051Z,14.80
2022-10-24T13:05:52.128Z,14.87
2022-10-24T13:08:30.479Z,14.91
2022-10-24T13:11:05.898Z,14.88
2022-10-24T13:13:54.013Z,14.75
2022-10-24T13:17:06.458Z,14.57
2022-10-24T13:19:33.033Z,14.56
2022-10-24T13:22:04.446Z,14.45
2022-10-24T13:24:35.272Z,14.36
2022-10-24T13:27:11.893Z,14.26
2022-10-24T13:29:39.612Z,14.22
2022-10-24T13:32:06.036Z,14.14
2022-10-24T13:34:45.938Z,14.12
2022-10-24T13:37:37.741Z,14.06
2022-10-24T13:40:17.398Z,13.98
2022-10-24T13:42:51.887Z,13.96
2022-10-24T13:45:39.412Z,13.97
2022-10-24T13:48:30.388Z,13.92
2022-10-24T13:51:18.396Z,13.94
2022-10-24T13:54:11.390Z,13.93
2022-10-24T13:56:40.971Z,13.87
2022-10-24T13:59:33.432Z,13.78
2022-10-24T14:02:04.559Z,13.76
2022-10-24T14:04:32.445Z,13.68
2022-10-24T14:07:08.935Z,13.57
2022-10-24T14:09:43.137Z,13.55
2022-10-24T14:12:24.600Z,13.59
2022-10-24T14:14:53.198Z,13.58
2022-10-24T14:17:26.310Z,13.48
2022-10-24T14:20:20.689Z,13.44
2022-10-24T14:22:51.244Z,13.44
2022-10-24T14:25:27.909Z,13.43
2022-10-24T14:27:58.541Z,13.39
2022-10-24T14:30:32.101Z,13.34
2022-10-24T14:33:25.261Z,13.35
2022-10-24T14:35:56.922Z,13.35
2022-10-24T14:38:28.224Z,13.29
2022-10-24T14:41:07.801Z,13.30
2022-10-24T14:43:37.304Z,13.21
2022-10-24T14:46:12.845Z,13.24
2022-10-24T14:48:45.646Z,13.17
2022-10-24T14:51:22.088Z,13.14
2022-10-24T14:53:50.195Z,13.21
2022-10-24T14:56:27.327Z,13.20
2022-10-24T14:58:56.630Z,13.19
2022-10-24T15:01:24.999Z,13.13
2022-10-24T15:04:03.247Z,13.12
2022-10-24T15:06:39.468Z,13.10
2022-10-24T15:09:16.762Z,13.08
2022-10-24T15:11:44.528Z,13.09
2022-10-24T15:14:36.669Z,13.15
2022-10-24T15:17:28.437Z,13.12
2022-10-24T15:20:02.699Z,13.08
2022-10-24T15:22:38.327Z,13.12
2022-10-24T15:25:18.176Z,13.05
2022-10-24T15:27:45.696Z,13.07
2022-10-24T15:30:21.970Z,12.97
2022-10-24T15:32:50.515Z,13.01
2022-10-24T15:35:18.290Z,13.06
2022-10-24T15:37:59.476Z,13.02
2022-10-24T15:40:29.756Z,13.02
2022-10-24T15:42:56.749Z,13.07
2022-10-24T15:45:23.752Z,13.04
2022-10-24T15:47:51.132Z,13.01
2022-10-24T15:50:20.663Z,12.98
2022-10-24T15:52:53.216Z,12.96
2022-10-24T15:55:23.149Z,12.87
2022-10-24T15:57:50.316Z,12.85
2022-10-24T16:11:34.151Z,12.69
2022-10-24T16:14:17.041Z,12.65
2022-10-24T16:16:44.392Z,12.59
2022-10-24T16:19:11.576Z,12.61
2022-10-24T16:21:40.175Z,12.57
2022-10-24T16:24:10.395Z,12.54
2022-10-24T16:26:37.266Z,12.54
2022-10-24T16:29:04.784Z,12.44
2022-10-24T16:31:32.193Z,12.46
2022-10-24T16:34:01.937Z,12.42
2022-10-24T16:36:29.043Z,12.31
2022-10-24T16:38:55.836Z,12.23
2022-10-24T16:41:24.961Z,12.32
2022-10-24T16:43:55.994Z,12.25
2022-10-24T16:46:23.934Z,12.22
2022-10-24T16:48:50.715Z,12.18
2022-10-24T16:51:21.636Z,12.12
2022-10-24T16:53:48.130Z,12.12
2022-10-24T16:56:15.742Z,12.13
2022-10-24T16:58:43.051Z,12.09
2022-10-24T17:01:12.314Z,12.20
2022-10-24T17:03:39.196Z,12.05
2022-10-24T17:06:07.404Z,12.06
2022-10-24T17:08:34.425Z,12.04
2022-10-24T17:11:00.921Z,12.06
2022-10-24T17:13:28.181Z,12.04
2022-10-24T17:15:54.797Z,12.00
2022-10-24T17:18:23.441Z,11.94
2022-10-24T17:20:50.280Z,11.97
2022-10-24T17:23:22.059Z,11.94
2022-10-24T17:25:48.984Z,11.95
2022-10-24T17:28:17.299Z,11.95
2022-10-24T17:30:44.190Z,11.89
2022-10-24T17:33:11.537Z,11.85
2022-10-24T17:35:46.833Z,11.89
2022-10-24T17:38:27.594Z,11.91
2022-10-24T17:40:56.531Z,11.88
2022-10-24T17:43:28.029Z,11.92
2022-10-24T17:45:56.648Z,11.93
2022-10-24T17:48:24.221Z,11.99
2022-10-24T17:50:53.128Z,12.04
2022-10-24T17:53:19.667Z,12.06
2022-10-24T17:55:47.846Z,11.98
2022-10-24T17:58:16.051Z,11.96
2022-10-24T18:00:43.991Z,11.90
2022-10-24T18:03:10.985Z,11.86
2022-10-24T18:05:38.450Z,11.81
2022-10-24T18:08:07.266Z,11.81
2022-10-24T18:10:34.138Z,11.80
2022-10-24T18:13:01.913Z,11.81
2022-10-24T18:15:28.804Z,11.81
2022-10-24T18:17:55.367Z,11.83
2022-10-24T18:20:21.856Z,11.79
2022-10-24T18:22:51.141Z,11.79
2022-10-24T18:25:21.958Z,11.87
2022-10-24T18:27:50.827Z,11.80
2022-10-24T18:30:17.786Z,11.77
2022-10-24T18:32:44.730Z,11.74
2022-10-24T18:35:12.368Z,11.78
2022-10-24T18:37:39.509Z,11.75
2022-10-24T18:47:25.836Z,11.61
2022-10-24T18:49:52.921Z,11.45
2022-10-24T18:52:29.552Z,11.39
2022-10-24T18:55:15.870Z,11.31
2022-10-24T18:57:52.048Z,11.22
2022-10-24T19:00:22.023Z,11.22
2022-10-24T19:11:47.209Z,11.15
2022-10-24T19:14:14.951Z,11.12
2022-10-24T19:24:02.840Z,11.14
2022-10-24T19:38:43.670Z,11.73
2022-10-24T20:13:19.537Z,10.91
2022-10-24T20:15:54.583Z,10.96
2022-10-24T20:22:44.044Z,11.01
2022-10-24T20:25:13.689Z,11.09
2022-10-24T21:20:04.936Z,10.08
2022-10-24T21:22:40.657Z,9.94
2022-10-24T21:25:07.665Z,9.87
2022-10-24T21:28:04.426Z,9.73
2022-10-24T21:30:30.932Z,9.59
2022-10-24T21:32:57.623Z,9.60
2022-10-24T21:35:24.123Z,9.50
2022-10-24T21:37:50.572Z,9.51
2022-10-24T21:40:18.227Z,9.43
2022-10-24T21:42:45.417Z,9.37
2022-10-24T21:48:09.580Z,9.38
2022-10-24T21:50:36.137Z,9.38
2022-10-24T21:53:14.852Z,9.35
2022-10-24T22:06:55.787Z,9.07
2022-10-24T22:09:25.223Z,9.02
2022-10-24T22:15:27.925Z,8.94
2022-10-24T22:26:03.564Z,9.06
2022-10-24T22:28:30.807Z,9.07
2022-10-24T22:28:33.985Z,8.96
2022-10-24T22:30:57.602Z,9.04
2022-10-24T22:33:37.049Z,9.09
2022-10-24T22:36:44.862Z,9.03
2022-10-24T22:39:23.461Z,9.18
2022-10-24T22:44:35.668Z,9.24
2022-10-24T22:47:26.477Z,9.30
2022-10-24T22:50:11.878Z,9.30
2022-10-24T22:52:38.739Z,9.24
2022-10-24T22:58:17.732Z,9.20
2022-10-24T23:00:45.182Z,9.21
2022-10-24T23:03:14.365Z,9.22
2022-10-24T23:09:34.121Z,9.26
2022-10-24T23:16:01.036Z,9.29
2022-10-24T23:24:26.780Z,9.25
2022-10-24T23:25:39.884Z,9.29
2022-10-24T23:28:32.649Z,9.27
2022-10-24T23:30:59.555Z,9.21
2022-10-24T23:33:29.763Z,9.15
2022-10-24T23:36:00.027Z,9.06
2022-10-24T23:38:27.014Z,8.98
2022-10-24T23:41:12.490Z,8.85
